Time;durP1;ratioP1;P1;durP2;ratioP2;P2;SDS_P1;SDS_P2;PMS_P1;PMS_P2;Temp;Humidity;BMP_temperature;BMP_pressure;BME280_temperature;BME280_humidity;BME280_pressure;Samples;Min_cycle;Max_cycle;Signal;HPM_P1;HPM_P2
2024/03/11 00:00:29;;;;;;;50.38;38.85;;;;;;;;;;5002606;28;25066;-66
2024/03/11 00:02:55;;;;;;;55.42;40.88;;;;;;;;;;4998915;28;25064;-65
2024/03/11 00:05:21;;;;;;;54.70;40.40;;;;;;;;;;5010832;28;25058;-65
2024/03/11 00:07:49;;;;;;;53.88;40.80;;;;;;;;;;5011279;28;25062;-66
2024/03/11 00:10:15;;;;;;;55.78;42.17;;;;;;;;;;5013932;28;25081;-66
2024/03/11 00:12:41;;;;;;;56.28;41.97;;;;;;;;;;5006403;28;25053;-65
2024/03/11 00:15:08;;;;;;;57.08;43.13;;;;;;;;;;5002006;28;25161;-64
2024/03/11 00:17:36;;;;;;;53.90;42.10;;;;;;;;;;4994231;28;25052;-65
2024/03/11 00:20:04;;;;;;;55.45;41.15;;;;;;;;;;4993504;28;25109;-65
2024/03/11 00:22:30;;;;;;;51.85;40.55;;;;;;;;;;4993313;28;25056;-63
2024/03/11 00:24:56;;;;;;;55.00;40.55;;;;;;;;;;4998294;28;25097;-65
2024/03/11 00:27:22;;;;;;;53.40;41.03;;;;;;;;;;4992116;28;25138;-64
2024/03/11 00:29:50;;;;;;;53.53;40.30;;;;;;;;;;5006777;28;25051;-64
2024/03/11 00:32:16;;;;;;;52.65;40.95;;;;;;;;;;5002452;28;25070;-65
2024/03/11 00:34:42;;;;;;;56.58;41.28;;;;;;;;;;4996968;28;25058;-65
2024/03/11 00:37:12;;;;;;;54.05;40.78;;;;;;;;;;4995252;28;25077;-66
2024/03/11 00:39:38;;;;;;;54.97;39.67;;;;;;;;;;4992601;28;25076;-64
2024/03/11 00:42:04;;;;;;;54.40;38.95;;;;;;;;;;5001465;28;25095;-64
2024/03/11 00:44:30;;;;;;;52.03;39.17;;;;;;;;;;5002250;28;25050;-64
2024/03/11 00:46:56;;;;;;;52.75;40.50;;;;;;;;;;5003558;28;25053;-65
2024/03/11 00:49:22;;;;;;;53.65;41.38;;;;;;;;;;4990603;28;25070;-66
2024/03/11 00:51:48;;;;;;;54.83;40.58;;;;;;;;;;5000444;28;25066;-65
2024/03/11 00:54:14;;;;;;;54.60;40.58;;;;;;;;;;5001362;28;25075;-65
2024/03/11 00:56:42;;;;;;;52.50;39.28;;;;;;;;;;4992043;28;25077;-64
2024/03/11 00:59:09;;;;;;;53.80;39.95;;;;;;;;;;4994543;28;25085;-67
2024/03/11 01:01:36;;;;;;;52.10;40.55;;;;;;;;;;4991790;28;25084;-64
2024/03/11 01:04:03;;;;;;;54.38;41.10;;;;;;;;;;4996023;28;25161;-65
2024/03/11 01:06:29;;;;;;;51.17;40.33;;;;;;;;;;4990758;28;25080;-65
2024/03/11 01:08:55;;;;;;;51.05;40.58;;;;;;;;;;4992128;28;25119;-64
2024/03/11 01:11:24;;;;;;;50.70;39.35;;;;;;;;;;4995602;28;25058;-65
2024/03/11 01:13:50;;;;;;;50.65;39.15;;;;;;;;;;4997876;28;25079;-65
2024/03/11 01:16:16;;;;;;;49.25;38.83;;;;;;;;;;4990424;28;25098;-64
2024/03/11 01:18:42;;;;;;;53.30;39.53;;;;;;;;;;4996639;28;25056;-65
2024/03/11 01:21:09;;;;;;;51.13;40.00;;;;;;;;;;4996146;28;25053;-66
2024/03/11 01:23:36;;;;;;;54.13;39.88;;;;;;;;;;4989081;28;25044;-63
2024/03/11 01:26:01;;;;;;;52.78;40.47;;;;;;;;;;4988335;28;25144;-64
2024/03/11 01:28:27;;;;;;;53.22;41.58;;;;;;;;;;4993582;28;25088;-64
2024/03/11 01:30:53;;;;;;;50.92;39.33;;;;;;;;;;4998856;28;25066;-65
2024/03/11 01:33:19;;;;;;;54.35;40.92;;;;;;;;;;4988688;28;25142;-64
2024/03/11 01:35:45;;;;;;;56.13;40.47;;;;;;;;;;4997252;28;25060;-65
2024/03/11 01:38:12;;;;;;;53.03;40.45;;;;;;;;;;4990701;28;25066;-64
2024/03/11 01:40:38;;;;;;;56.95;42.13;;;;;;;;;;5001118;28;25167;-65
2024/03/11 01:43:04;;;;;;;57.70;43.38;;;;;;;;;;4997583;28;25084;-65
2024/03/11 01:45:32;;;;;;;54.47;40.45;;;;;;;;;;4992244;28;25161;-66
2024/03/11 01:47:58;;;;;;;57.28;42.15;;;;;;;;;;4998392;28;25089;-64
2024/03/11 01:50:24;;;;;;;52.42;40.38;;;;;;;;;;4995939;28;25128;-65
2024/03/11 01:52:55;;;;;;;54.35;40.83;;;;;;;;;;4996261;28;25104;-65
2024/03/11 01:55:24;;;;;;;52.00;39.80;;;;;;;;;;4990518;28;25056;-66
2024/03/11 01:57:51;;;;;;;54.60;40.58;;;;;;;;;;4989567;28;25065;-63
2024/03/11 02:00:19;;;;;;;52.15;41.60;;;;;;;;;;4988762;28;25086;-66
2024/03/11 02:02:46;;;;;;;56.28;42.15;;;;;;;;;;4989159;28;25063;-66
2024/03/11 02:05:15;;;;;;;60.38;42.90;;;;;;;;;;4991976;28;25068;-64
2024/03/11 02:07:42;;;;;;;58.22;42.00;;;;;;;;;;4996595;28;25049;-66
2024/03/11 02:10:13;;;;;;;53.63;40.78;;;;;;;;;;4997652;28;25055;-64
2024/03/11 02:12:40;;;;;;;52.47;39.58;;;;;;;;;;4993690;28;25053;-62
2024/03/11 02:15:10;;;;;;;52.75;41.15;;;;;;;;;;4992688;28;25064;-67
2024/03/11 02:17:38;;;;;;;56.28;42.63;;;;;;;;;;4991249;28;25069;-66
2024/03/11 02:20:07;;;;;;;54.72;41.47;;;;;;;;;;4996070;28;25055;-63
2024/03/11 02:22:34;;;;;;;57.95;41.63;;;;;;;;;;4993335;28;25060;-65
2024/03/11 02:25:00;;;;;;;54.50;41.22;;;;;;;;;;4995736;28;25062;-64
2024/03/11 02:27:26;;;;;;;56.22;42.40;;;;;;;;;;4999287;28;25073;-68
2024/03/11 02:29:52;;;;;;;57.58;42.80;;;;;;;;;;5006344;28;25087;-66
2024/03/11 02:32:18;;;;;;;56.80;41.80;;;;;;;;;;5008222;28;25118;-64
2024/03/11 02:34:44;;;;;;;58.22;43.83;;;;;;;;;;5006136;28;25099;-63
2024/03/11 02:37:11;;;;;;;56.97;42.50;;;;;;;;;;5006038;28;25073;-65
2024/03/11 02:39:38;;;;;;;55.20;40.80;;;;;;;;;;4996672;28;25077;-64
2024/03/11 02:42:05;;;;;;;59.38;42.30;;;;;;;;;;5023194;28;25122;-64
2024/03/11 02:44:32;;;;;;;55.03;39.95;;;;;;;;;;5003639;28;25099;-65
2024/03/11 02:46:58;;;;;;;58.15;43.50;;;;;;;;;;5002675;28;25062;-64
2024/03/11 02:49:24;;;;;;;56.90;42.17;;;;;;;;;;4998504;28;25063;-65
2024/03/11 02:51:51;;;;;;;59.55;42.03;;;;;;;;;;5006179;28;25067;-66
2024/03/11 02:54:18;;;;;;;56.80;42.60;;;;;;;;;;4995146;28;25061;-63
2024/03/11 02:56:44;;;;;;;52.63;41.90;;;;;;;;;;5001196;28;25071;-63
2024/03/11 02:59:10;;;;;;;62.70;46.15;;;;;;;;;;4996063;28;25086;-64
2024/03/11 03:01:37;;;;;;;57.88;43.08;;;;;;;;;;5000254;28;25085;-64
2024/03/11 03:04:05;;;;;;;60.30;43.67;;;;;;;;;;5007466;28;25066;-64
2024/03/11 03:06:31;;;;;;;58.00;41.85;;;;;;;;;;5004935;28;25182;-64
2024/03/11 03:08:57;;;;;;;59.22;42.55;;;;;;;;;;5002354;28;25117;-62
2024/03/11 03:11:23;;;;;;;58.95;44.28;;;;;;;;;;5005957;28;25130;-66
2024/03/11 03:13:50;;;;;;;53.38;41.35;;;;;;;;;;5000040;28;25061;-64
2024/03/11 03:16:16;;;;;;;59.78;44.03;;;;;;;;;;5003259;28;25127;-64
2024/03/11 03:18:42;;;;;;;60.90;43.90;;;;;;;;;;5001547;28;25060;-64
2024/03/11 03:21:08;;;;;;;63.83;47.03;;;;;;;;;;5002890;28;25075;-65
2024/03/11 03:23:34;;;;;;;67.70;47.20;;;;;;;;;;5002535;28;25068;-64
2024/03/11 03:26:00;;;;;;;62.15;46.55;;;;;;;;;;5001685;28;25174;-64
2024/03/11 03:28:26;;;;;;;71.55;47.33;;;;;;;;;;4995075;28;25117;-64
2024/03/11 03:30:53;;;;;;;58.35;44.58;;;;;;;;;;5006486;28;25068;-64
2024/03/11 03:33:20;;;;;;;61.92;45.83;;;;;;;;;;4996345;28;25080;-65
2024/03/11 03:35:46;;;;;;;63.58;45.35;;;;;;;;;;4999568;28;25139;-63
2024/03/11 03:38:12;;;;;;;69.00;47.42;;;;;;;;;;5004497;28;25053;-63
2024/03/11 03:40:38;;;;;;;70.43;48.72;;;;;;;;;;5004380;28;25069;-66
2024/03/11 03:43:04;;;;;;;71.78;49.03;;;;;;;;;;5003983;28;25065;-63
2024/03/11 03:45:31;;;;;;;71.82;48.97;;;;;;;;;;5006112;28;25056;-65
2024/03/11 03:47:57;;;;;;;67.38;47.17;;;;;;;;;;5002011;28;25070;-63
2024/03/11 03:50:24;;;;;;;73.03;50.63;;;;;;;;;;5004753;28;25087;-63
2024/03/11 03:52:50;;;;;;;73.93;48.08;;;;;;;;;;5008792;28;25054;-66
2024/03/11 03:55:16;;;;;;;66.28;46.70;;;;;;;;;;5019291;28;25042;-65
2024/03/11 03:57:43;;;;;;;68.22;47.28;;;;;;;;;;5003666;28;25061;-66
2024/03/11 04:00:15;;;;;;;71.57;48.00;;;;;;;;;;5010545;28;25111;-67
2024/03/11 04:02:45;;;;;;;70.53;47.13;;;;;;;;;;5000485;28;25075;-66
2024/03/11 04:05:11;;;;;;;77.30;48.83;;;;;;;;;;4997753;28;25084;-64
2024/03/11 04:07:40;;;;;;;68.53;48.15;;;;;;;;;;5002493;28;25088;-67
2024/03/11 04:10:06;;;;;;;65.68;45.90;;;;;;;;;;5003307;28;25055;-65
2024/03/11 04:12:32;;;;;;;68.22;47.22;;;;;;;;;;4998559;28;25067;-66
2024/03/11 04:14:58;;;;;;;72.10;47.22;;;;;;;;;;5004842;28;25132;-64
2024/03/11 04:17:25;;;;;;;70.55;48.20;;;;;;;;;;5000881;28;25147;-66
2024/03/11 04:19:51;;;;;;;70.82;46.95;;;;;;;;;;5003691;28;25063;-64
2024/03/11 04:22:19;;;;;;;67.53;46.03;;;;;;;;;;5016242;28;25057;-64
2024/03/11 04:24:45;;;;;;;65.90;46.15;;;;;;;;;;4999544;28;25063;-64
2024/03/11 04:27:11;;;;;;;67.15;47.28;;;;;;;;;;4997185;28;25065;-65
2024/03/11 04:29:37;;;;;;;70.50;48.00;;;;;;;;;;4993590;28;25146;-67
2024/03/11 04:32:06;;;;;;;67.10;45.47;;;;;;;;;;4996601;28;25069;-65
2024/03/11 04:34:32;;;;;;;66.65;46.67;;;;;;;;;;4997010;28;25062;-65
2024/03/11 04:36:58;;;;;;;65.38;45.30;;;;;;;;;;5000196;28;25070;-65
2024/03/11 04:39:25;;;;;;;64.40;47.15;;;;;;;;;;4993906;28;25077;-65
2024/03/11 04:41:51;;;;;;;69.32;50.28;;;;;;;;;;4994554;28;25128;-64
2024/03/11 04:44:17;;;;;;;66.85;47.58;;;;;;;;;;4999554;28;25070;-65
2024/03/11 04:46:43;;;;;;;67.70;48.70;;;;;;;;;;5006845;28;25042;-65
2024/03/11 04:49:09;;;;;;;64.82;45.50;;;;;;;;;;5012400;28;25145;-66
2024/03/11 04:51:35;;;;;;;68.93;48.35;;;;;;;;;;5005883;28;25066;-65
2024/03/11 04:54:02;;;;;;;66.00;47.75;;;;;;;;;;5007472;28;25084;-67
2024/03/11 04:56:30;;;;;;;68.93;50.15;;;;;;;;;;5002265;28;25064;-64
2024/03/11 04:58:56;;;;;;;72.07;50.67;;;;;;;;;;4996263;28;25052;-65
2024/03/11 05:01:23;;;;;;;69.32;48.92;;;;;;;;;;4999662;28;25063;-65
2024/03/11 05:03:49;;;;;;;75.82;49.90;;;;;;;;;;4991698;28;25083;-65
2024/03/11 05:06:14;;;;;;;76.18;50.78;;;;;;;;;;4996501;28;25076;-64
2024/03/11 05:08:40;;;;;;;76.57;51.63;;;;;;;;;;4993149;28;25051;-65
2024/03/11 05:11:06;;;;;;;76.25;52.17;;;;;;;;;;4996471;28;25094;-65
2024/03/11 05:13:32;;;;;;;80.88;52.92;;;;;;;;;;4992855;28;25161;-65
2024/03/11 05:15:58;;;;;;;76.20;50.40;;;;;;;;;;4996144;28;25073;-65
2024/03/11 05:18:26;;;;;;;87.47;56.13;;;;;;;;;;4991624;28;25142;-64
2024/03/11 05:20:54;;;;;;;84.80;55.38;;;;;;;;;;5000835;28;25055;-64
2024/03/11 05:23:20;;;;;;;90.70;56.25;;;;;;;;;;4991237;28;25177;-65
2024/03/11 05:25:46;;;;;;;86.57;55.72;;;;;;;;;;4998812;28;25097;-63
2024/03/11 05:28:12;;;;;;;89.85;54.33;;;;;;;;;;4990894;28;25068;-68
2024/03/11 05:30:38;;;;;;;86.93;55.45;;;;;;;;;;4994351;28;25096;-63
2024/03/11 05:33:04;;;;;;;90.10;55.55;;;;;;;;;;5002147;28;25081;-65
2024/03/11 05:35:30;;;;;;;94.38;59.78;;;;;;;;;;4993296;28;25051;-67
2024/03/11 05:38:00;;;;;;;99.20;60.00;;;;;;;;;;4997145;28;25127;-64
2024/03/11 05:40:26;;;;;;;90.53;57.05;;;;;;;;;;4994736;28;25088;-65
2024/03/11 05:42:52;;;;;;;94.95;57.63;;;;;;;;;;4992555;28;25114;-65
2024/03/11 05:45:18;;;;;;;89.95;58.03;;;;;;;;;;4998292;28;25105;-64
2024/03/11 05:47:45;;;;;;;95.03;59.58;;;;;;;;;;4995496;28;25140;-65
2024/03/11 05:50:16;;;;;;;93.95;56.60;;;;;;;;;;4995546;28;25046;-64
2024/03/11 05:52:44;;;;;;;93.50;59.97;;;;;;;;;;4995032;28;25063;-66
2024/03/11 05:55:13;;;;;;;95.65;61.55;;;;;;;;;;4990930;28;25074;-64
2024/03/11 05:57:42;;;;;;;88.50;56.10;;;;;;;;;;4993458;28;25115;-64
2024/03/11 06:00:15;;;;;;;90.18;57.00;;;;;;;;;;4997362;28;25062;-65
2024/03/11 06:02:41;;;;;;;91.30;59.00;;;;;;;;;;4999128;28;25094;-66
2024/03/11 06:05:08;;;;;;;90.75;54.65;;;;;;;;;;4994117;28;25094;-65
2024/03/11 06:07:34;;;;;;;91.47;57.83;;;;;;;;;;4993702;28;25075;-64
2024/03/11 06:10:00;;;;;;;89.75;56.80;;;;;;;;;;4993699;28;25142;-65
2024/03/11 06:12:28;;;;;;;87.90;54.75;;;;;;;;;;4996423;28;25103;-66
2024/03/11 06:14:54;;;;;;;94.85;58.03;;;;;;;;;;4995321;28;25066;-66
2024/03/11 06:17:20;;;;;;;92.28;59.17;;;;;;;;;;4999140;28;25465;-66
2024/03/11 06:19:47;;;;;;;94.22;60.03;;;;;;;;;;4998272;28;25128;-65
2024/03/11 06:22:15;;;;;;;110.03;63.83;;;;;;;;;;4997627;28;25064;-66
2024/03/11 06:24:41;;;;;;;96.30;61.05;;;;;;;;;;4993420;28;25068;-66
2024/03/11 06:27:07;;;;;;;103.18;60.03;;;;;;;;;;5000322;28;25125;-66
2024/03/11 06:29:35;;;;;;;92.47;58.45;;;;;;;;;;4999805;28;25159;-65
2024/03/11 06:32:04;;;;;;;101.85;63.20;;;;;;;;;;4998147;28;25078;-66
2024/03/11 06:34:30;;;;;;;86.60;56.15;;;;;;;;;;4996319;28;25151;-65
2024/03/11 06:36:55;;;;;;;95.40;60.28;;;;;;;;;;5001257;28;25080;-66
2024/03/11 06:39:21;;;;;;;99.28;61.80;;;;;;;;;;5000130;28;25113;-65
2024/03/11 06:41:48;;;;;;;97.90;61.17;;;;;;;;;;4992498;28;25068;-65
2024/03/11 06:44:14;;;;;;;103.38;60.22;;;;;;;;;;4993819;28;25161;-66
2024/03/11 06:46:40;;;;;;;98.50;59.78;;;;;;;;;;4998966;28;25154;-66
2024/03/11 06:49:06;;;;;;;92.38;57.20;;;;;;;;;;4990517;28;25138;-67
2024/03/11 06:51:32;;;;;;;94.18;58.63;;;;;;;;;;4993220;28;25087;-66
2024/03/11 06:54:01;;;;;;;85.78;56.78;;;;;;;;;;4993348;28;25139;-65
2024/03/11 06:56:27;;;;;;;95.78;58.95;;;;;;;;;;5000347;28;25126;-67
2024/03/11 06:58:53;;;;;;;95.45;60.40;;;;;;;;;;5003180;28;25060;-66
2024/03/11 07:01:20;;;;;;;101.75;61.45;;;;;;;;;;4994834;28;25086;-68
2024/03/11 07:03:46;;;;;;;99.10;61.13;;;;;;;;;;5001280;28;25113;-68
2024/03/11 07:06:12;;;;;;;100.45;62.67;;;;;;;;;;5014715;28;25135;-66
2024/03/11 07:08:38;;;;;;;100.22;61.35;;;;;;;;;;5012736;28;25055;-67
2024/03/11 07:11:04;;;;;;;92.95;59.40;;;;;;;;;;5016169;28;25076;-69
2024/03/11 07:13:37;;;;;;;103.72;63.30;;;;;;;;;;4992843;28;25054;-67
2024/03/11 07:16:06;;;;;;;99.55;61.30;;;;;;;;;;4994642;28;25160;-67
2024/03/11 07:18:33;;;;;;;92.82;61.20;;;;;;;;;;4998092;28;25078;-67
2024/03/11 07:21:04;;;;;;;105.45;63.67;;;;;;;;;;4996261;28;25068;-69
2024/03/11 07:23:31;;;;;;;109.07;64.68;;;;;;;;;;4992437;28;25084;-66
2024/03/11 07:25:58;;;;;;;103.57;61.25;;;;;;;;;;4988720;28;25058;-67
2024/03/11 07:28:26;;;;;;;106.68;63.22;;;;;;;;;;4995063;28;25077;-66
2024/03/11 07:30:52;;;;;;;112.20;63.42;;;;;;;;;;4992040;28;25085;-66
2024/03/11 07:33:20;;;;;;;105.47;64.07;;;;;;;;;;4988710;28;25099;-66
2024/03/11 07:35:47;;;;;;;101.47;63.42;;;;;;;;;;4992100;28;25114;-67
2024/03/11 07:38:14;;;;;;;89.97;60.00;;;;;;;;;;4990623;28;25072;-66
2024/03/11 07:40:40;;;;;;;97.22;61.92;;;;;;;;;;4991616;28;25055;-66
2024/03/11 07:43:06;;;;;;;106.40;62.92;;;;;;;;;;4986332;28;25078;-66
2024/03/11 07:45:37;;;;;;;95.68;62.28;;;;;;;;;;4992118;28;25080;-66
2024/03/11 07:48:03;;;;;;;96.28;59.92;;;;;;;;;;4990699;28;25098;-68
2024/03/11 07:50:29;;;;;;;96.78;62.00;;;;;;;;;;4993623;28;25083;-66
2024/03/11 07:52:56;;;;;;;104.78;63.22;;;;;;;;;;4998458;28;25071;-66
2024/03/11 07:55:28;;;;;;;100.95;63.55;;;;;;;;;;4989205;28;25071;-66
2024/03/11 07:57:55;;;;;;;121.78;69.45;;;;;;;;;;4997241;28;25085;-67
2024/03/11 08:00:23;;;;;;;119.45;70.03;;;;;;;;;;4992845;28;25059;-65
2024/03/11 08:02:49;;;;;;;104.90;64.65;;;;;;;;;;5000977;28;25105;-66
2024/03/11 08:05:17;;;;;;;104.95;64.13;;;;;;;;;;4998906;28;25059;-67
2024/03/11 08:07:44;;;;;;;110.00;66.25;;;;;;;;;;4997744;28;25088;-66
2024/03/11 08:10:12;;;;;;;99.47;63.75;;;;;;;;;;4990426;28;25070;-67
2024/03/11 08:12:38;;;;;;;109.60;65.45;;;;;;;;;;5001206;28;25124;-68
2024/03/11 08:15:06;;;;;;;102.32;63.05;;;;;;;;;;4992711;28;25078;-68
2024/03/11 08:17:32;;;;;;;114.30;66.55;;;;;;;;;;4992979;28;25062;-66
2024/03/11 08:19:59;;;;;;;99.20;63.58;;;;;;;;;;5000097;28;25084;-66
2024/03/11 08:22:25;;;;;;;116.80;68.25;;;;;;;;;;4998272;28;25059;-67
2024/03/11 08:24:51;;;;;;;110.03;64.88;;;;;;;;;;4990374;28;25071;-67
2024/03/11 08:27:17;;;;;;;109.00;67.60;;;;;;;;;;4995818;28;25059;-68
2024/03/11 08:29:46;;;;;;;107.60;63.70;;;;;;;;;;4990487;28;25127;-70
2024/03/11 08:32:12;;;;;;;89.53;60.47;;;;;;;;;;5001292;28;25088;-69
2024/03/11 08:34:38;;;;;;;110.22;66.65;;;;;;;;;;4992808;28;25056;-68
2024/03/11 08:37:04;;;;;;;120.18;70.80;;;;;;;;;;4988056;28;25154;-68
2024/03/11 08:39:33;;;;;;;126.68;72.78;;;;;;;;;;4993890;28;25124;-66
2024/03/11 08:42:00;;;;;;;115.43;66.15;;;;;;;;;;4988994;28;25105;-66
2024/03/11 08:44:29;;;;;;;114.25;66.47;;;;;;;;;;4993521;28;25151;-67
2024/03/11 08:46:55;;;;;;;122.00;70.20;;;;;;;;;;4990478;28;25070;-68
2024/03/11 08:49:23;;;;;;;117.75;69.13;;;;;;;;;;4993088;28;25058;-66
2024/03/11 08:51:49;;;;;;;123.07;70.65;;;;;;;;;;4996500;28;25118;-68
2024/03/11 08:54:15;;;;;;;119.60;67.55;;;;;;;;;;4989623;28;25109;-67
2024/03/11 08:56:41;;;;;;;113.40;67.20;;;;;;;;;;4988346;28;25058;-68
2024/03/11 08:59:15;;;;;;;117.05;69.28;;;;;;;;;;4993963;28;25072;-67
2024/03/11 09:01:42;;;;;;;92.00;61.08;;;;;;;;;;4991843;28;25075;-67
2024/03/11 09:04:10;;;;;;;127.93;71.53;;;;;;;;;;4993357;28;25089;-67
2024/03/11 09:06:41;;;;;;;116.68;68.70;;;;;;;;;;4993626;28;25066;-66
2024/03/11 09:09:14;;;;;;;125.70;71.93;;;;;;;;;;5022677;28;25055;-67
2024/03/11 09:11:40;;;;;;;;;;;;;;;;;;5019390;28;25064;-69
2024/03/11 09:14:06;;;;;;;113.55;64.30;;;;;;;;;;5016635;28;25062;-67
2024/03/11 09:16:32;;;;;;;118.68;68.65;;;;;;;;;;5015786;28;25064;-67
2024/03/11 09:18:58;;;;;;;118.88;67.18;;;;;;;;;;5023592;28;25119;-66
2024/03/11 09:21:24;;;;;;;115.43;66.47;;;;;;;;;;5022335;28;25069;-65
2024/03/11 09:23:50;;;;;;;120.60;66.47;;;;;;;;;;5033641;28;25076;-66
2024/03/11 09:26:17;;;;;;;136.70;74.20;;;;;;;;;;5029321;28;25050;-66
2024/03/11 09:28:48;;;;;;;131.00;72.13;;;;;;;;;;5036385;28;25074;-66
2024/03/11 09:31:14;;;;;;;135.25;74.28;;;;;;;;;;5034247;28;25077;-67
2024/03/11 09:33:43;;;;;;;139.93;76.13;;;;;;;;;;5022196;28;25077;-65
2024/03/11 09:36:09;;;;;;;139.25;75.18;;;;;;;;;;5021902;28;25048;-66
2024/03/11 09:38:36;;;;;;;140.02;74.90;;;;;;;;;;5017958;28;25059;-65
2024/03/11 09:41:10;;;;;;;129.13;73.55;;;;;;;;;;5019326;28;25064;-65
2024/03/11 09:43:36;;;;;;;135.93;73.63;;;;;;;;;;5020640;28;25073;-66
2024/03/11 09:46:02;;;;;;;127.63;71.57;;;;;;;;;;5014321;28;25097;-66
2024/03/11 09:48:28;;;;;;;134.07;73.93;;;;;;;;;;5016716;28;25171;-66
2024/03/11 09:50:57;;;;;;;137.63;74.70;;;;;;;;;;5015440;28;25162;-66
2024/03/11 09:53:25;;;;;;;136.50;74.53;;;;;;;;;;5022028;28;25054;-66
2024/03/11 09:55:54;;;;;;;128.65;74.15;;;;;;;;;;5021484;28;25060;-65
2024/03/11 09:58:21;;;;;;;145.98;77.38;;;;;;;;;;5020902;28;25051;-68
2024/03/11 10:00:55;;;;;;;141.55;78.03;;;;;;;;;;5019801;28;25076;-66
2024/03/11 10:03:24;;;;;;;159.68;84.00;;;;;;;;;;5011947;28;25057;-66
2024/03/11 10:06:01;;;;;;;153.52;80.60;;;;;;;;;;5017216;28;25160;-66
2024/03/11 10:08:27;;;;;;;168.95;86.15;;;;;;;;;;5015975;28;25075;-67
2024/03/11 10:11:12;;;;;;;146.88;81.53;;;;;;;;;;5023990;28;25175;-65
2024/03/11 10:13:38;;;;;;;147.52;82.03;;;;;;;;;;5020335;28;25083;-65
2024/03/11 10:16:14;;;;;;;150.35;83.35;;;;;;;;;;5024313;28;25087;-66
2024/03/11 10:18:48;;;;;;;140.95;79.50;;;;;;;;;;5014119;28;25078;-65
2024/03/11 10:21:17;;;;;;;150.80;80.32;;;;;;;;;;5024110;28;25056;-65
2024/03/11 10:23:43;;;;;;;146.57;81.10;;;;;;;;;;5016454;28;25140;-66
2024/03/11 10:26:24;;;;;;;138.45;76.50;;;;;;;;;;5016688;28;25134;-65
2024/03/11 10:28:51;;;;;;;138.25;79.80;;;;;;;;;;5013916;28;25097;-66
2024/03/11 10:31:21;;;;;;;142.13;81.78;;;;;;;;;;5023578;28;25089;-67
2024/03/11 10:33:50;;;;;;;144.45;78.28;;;;;;;;;;5014249;28;25056;-66
2024/03/11 10:36:16;;;;;;;146.55;78.43;;;;;;;;;;5022960;28;25080;-66
2024/03/11 10:38:46;;;;;;;141.80;79.68;;;;;;;;;;5016863;28;25172;-67
2024/03/11 10:41:22;;;;;;;154.50;84.93;;;;;;;;;;5018584;28;25074;-68
2024/03/11 10:43:51;;;;;;;156.70;83.60;;;;;;;;;;5010104;28;25072;-66
2024/03/11 10:46:18;;;;;;;149.60;80.85;;;;;;;;;;5009063;28;25078;-66
2024/03/11 10:48:46;;;;;;;145.23;78.82;;;;;;;;;;5015975;28;25133;-66
2024/03/11 10:51:13;;;;;;;152.85;84.03;;;;;;;;;;5021727;28;25149;-67
2024/03/11 10:53:42;;;;;;;154.75;82.00;;;;;;;;;;5019386;28;25069;-68
2024/03/11 10:56:11;;;;;;;138.48;78.50;;;;;;;;;;5015779;28;25067;-67
2024/03/11 10:58:42;;;;;;;146.40;79.95;;;;;;;;;;5014475;28;25154;-68
2024/03/11 11:01:08;;;;;;;144.63;78.72;;;;;;;;;;5020064;28;25076;-66
2024/03/11 11:03:36;;;;;;;149.20;79.80;;;;;;;;;;5013580;28;25059;-66
2024/03/11 11:06:09;;;;;;;141.13;78.38;;;;;;;;;;5018685;28;25065;-67
2024/03/11 11:08:37;;;;;;;136.90;80.25;;;;;;;;;;5022047;28;25101;-67
2024/03/11 11:11:04;;;;;;;128.13;74.50;;;;;;;;;;5016789;28;25065;-67
2024/03/11 11:13:33;;;;;;;128.30;79.28;;;;;;;;;;5016405;28;25055;-67
2024/03/11 11:16:03;;;;;;;126.38;73.80;;;;;;;;;;5018329;28;25144;-69
2024/03/11 11:18:30;;;;;;;137.50;78.65;;;;;;;;;;5016997;28;25132;-68
2024/03/11 11:20:56;;;;;;;120.07;71.38;;;;;;;;;;5024111;28;26190;-67
2024/03/11 11:23:27;;;;;;;123.60;72.63;;;;;;;;;;5023426;28;25154;-66
2024/03/11 11:25:55;;;;;;;145.80;79.25;;;;;;;;;;5022519;28;25109;-68
2024/03/11 11:28:28;;;;;;;133.73;75.18;;;;;;;;;;5025544;28;25074;-67
2024/03/11 11:31:12;;;;;;;136.40;73.03;;;;;;;;;;5023728;28;25071;-66
2024/03/11 11:33:53;;;;;;;122.10;73.13;;;;;;;;;;5021780;28;25079;-67
2024/03/11 11:36:31;;;;;;;109.68;67.07;;;;;;;;;;5022838;28;25094;-68
2024/03/11 11:39:17;;;;;;;105.15;68.05;;;;;;;;;;5019734;28;25075;-67
2024/03/11 11:41:49;;;;;;;113.93;67.70;;;;;;;;;;5027897;28;25061;-68
2024/03/11 11:44:27;;;;;;;111.68;69.63;;;;;;;;;;5039547;28;25052;-67
2024/03/11 11:46:54;;;;;;;103.88;66.10;;;;;;;;;;5050951;28;25062;-67
2024/03/11 11:49:25;;;;;;;110.13;67.15;;;;;;;;;;5047889;28;25061;-67
2024/03/11 11:51:54;;;;;;;104.45;66.40;;;;;;;;;;5038250;28;25073;-68
2024/03/11 11:54:28;;;;;;;100.63;66.03;;;;;;;;;;5029082;28;25053;-67
2024/03/11 11:57:15;;;;;;;103.18;64.53;;;;;;;;;;5019514;28;25082;-67
2024/03/11 11:59:43;;;;;;;100.05;62.10;;;;;;;;;;5024366;28;25061;-68
2024/03/11 12:02:16;;;;;;;100.57;63.78;;;;;;;;;;5016493;28;25154;-68
2024/03/11 12:04:54;;;;;;;89.15;59.78;;;;;;;;;;5026479;28;25055;-68
2024/03/11 12:07:23;;;;;;;96.20;61.90;;;;;;;;;;5018802;28;25152;-67
2024/03/11 12:09:53;;;;;;;84.68;56.75;;;;;;;;;;5017630;28;25145;-67
2024/03/11 12:12:27;;;;;;;96.32;62.40;;;;;;;;;;5024931;28;25159;-66
2024/03/11 12:14:53;;;;;;;92.85;61.67;;;;;;;;;;5012553;28;25122;-66
2024/03/11 12:17:19;;;;;;;92.82;58.80;;;;;;;;;;5024833;28;25053;-67
2024/03/11 12:19:45;;;;;;;92.10;61.30;;;;;;;;;;5018448;28;25071;-69
2024/03/11 12:22:14;;;;;;;99.05;64.22;;;;;;;;;;5025050;28;25066;-69
2024/03/11 12:24:45;;;;;;;102.43;62.80;;;;;;;;;;5017677;28;25078;-66
2024/03/11 12:27:12;;;;;;;100.60;63.13;;;;;;;;;;5026751;28;25080;-68
2024/03/11 12:29:39;;;;;;;91.95;61.83;;;;;;;;;;5025230;28;25055;-67
2024/03/11 12:32:11;;;;;;;96.97;62.05;;;;;;;;;;5013508;28;25157;-67
2024/03/11 12:34:38;;;;;;;96.63;60.17;;;;;;;;;;5016548;28;25058;-67
2024/03/11 12:37:04;;;;;;;98.18;60.58;;;;;;;;;;5015593;28;25092;-68
2024/03/11 12:39:46;;;;;;;91.18;59.67;;;;;;;;;;5021650;28;25115;-66
2024/03/11 12:42:12;;;;;;;92.25;62.35;;;;;;;;;;4988872;28;25096;-68
2024/03/11 12:44:39;;;;;;;98.50;66.45;;;;;;;;;;5000994;28;25131;-67
2024/03/11 12:47:05;;;;;;;102.05;63.17;;;;;;;;;;4988806;28;25078;-67
2024/03/11 12:49:31;;;;;;;96.20;62.38;;;;;;;;;;4995840;28;25069;-68
2024/03/11 12:52:01;;;;;;;93.82;61.75;;;;;;;;;;4991926;28;25109;-67
2024/03/11 12:54:28;;;;;;;96.35;60.28;;;;;;;;;;4990738;28;25092;-66
2024/03/11 12:57:13;;;;;;;91.03;58.50;;;;;;;;;;4995827;28;25074;-67
2024/03/11 12:59:59;;;;;;;92.78;59.83;;;;;;;;;;4996247;28;25081;-67
2024/03/11 13:02:26;;;;;;;92.13;59.35;;;;;;;;;;4990768;28;25048;-68
2024/03/11 13:04:53;;;;;;;91.30;59.78;;;;;;;;;;4991540;28;25153;-67
2024/03/11 13:07:19;;;;;;;103.72;61.75;;;;;;;;;;4998993;28;25058;-68
2024/03/11 13:09:46;;;;;;;90.03;59.08;;;;;;;;;;4994141;28;25053;-67
2024/03/11 13:12:18;;;;;;;98.93;62.55;;;;;;;;;;4988352;28;25050;-68
2024/03/11 13:14:48;;;;;;;109.80;65.63;;;;;;;;;;4992731;28;25121;-69
2024/03/11 13:17:16;;;;;;;98.78;61.88;;;;;;;;;;4990257;28;25072;-67
2024/03/11 13:19:42;;;;;;;99.38;63.10;;;;;;;;;;4999088;28;25048;-67
2024/03/11 13:22:18;;;;;;;97.53;62.38;;;;;;;;;;4995144;28;25069;-68
2024/03/11 13:24:45;;;;;;;98.05;62.33;;;;;;;;;;4994619;28;25069;-66
2024/03/11 13:27:11;;;;;;;93.70;58.13;;;;;;;;;;4992548;28;25072;-68
2024/03/11 13:29:38;;;;;;;94.80;59.65;;;;;;;;;;4997408;28;25129;-70
2024/03/11 13:32:07;;;;;;;96.68;61.70;;;;;;;;;;4990140;28;25069;-66
2024/03/11 13:34:33;;;;;;;99.13;62.47;;;;;;;;;;4997800;28;25072;-67
2024/03/11 13:36:59;;;;;;;95.00;59.22;;;;;;;;;;5001066;28;25085;-68
2024/03/11 13:39:36;;;;;;;98.75;61.90;;;;;;;;;;4998762;28;25079;-68
2024/03/11 13:42:03;;;;;;;103.30;63.67;;;;;;;;;;4990988;28;25054;-67
2024/03/11 13:44:29;;;;;;;95.07;60.40;;;;;;;;;;4998721;28;25084;-69
2024/03/11 13:46:55;;;;;;;101.47;64.47;;;;;;;;;;4994347;28;25055;-68
2024/03/11 13:49:24;;;;;;;103.50;63.67;;;;;;;;;;4992218;28;25061;-68
2024/03/11 13:51:50;;;;;;;101.75;63.85;;;;;;;;;;4995406;28;25059;-68
2024/03/11 13:54:16;;;;;;;108.20;63.58;;;;;;;;;;4996672;28;25077;-68
2024/03/11 13:56:43;;;;;;;101.50;63.33;;;;;;;;;;5000972;28;25052;-67
2024/03/11 13:59:09;;;;;;;103.32;65.93;;;;;;;;;;5001959;28;25124;-71
2024/03/11 14:01:35;;;;;;;109.10;67.00;;;;;;;;;;5006043;28;25076;-67
2024/03/11 14:04:02;;;;;;;107.80;64.53;;;;;;;;;;5003537;28;25073;-69
2024/03/11 14:06:28;;;;;;;111.15;66.15;;;;;;;;;;5012785;28;25139;-67
2024/03/11 14:08:54;;;;;;;109.82;65.93;;;;;;;;;;5017275;28;25078;-67
2024/03/11 14:11:21;;;;;;;99.50;61.47;;;;;;;;;;5022913;28;25060;-68
2024/03/11 14:13:47;;;;;;;112.53;65.28;;;;;;;;;;5016840;28;25091;-69
2024/03/11 14:16:13;;;;;;;122.47;67.95;;;;;;;;;;5007762;28;25090;-69